createdAt,value
2022-09-28T00:00:25.563Z,0.10
2022-09-28T00:02:57.531Z,0.00
2022-09-28T00:05:27.006Z,0.00
2022-09-28T00:07:55.850Z,0.03
2022-09-28T00:10:24.140Z,0.10
2022-09-28T00:12:55.512Z,0.10
2022-09-28T00:15:24.689Z,1.70
2022-09-28T00:17:52.507Z,0.10
2022-09-28T00:20:22.250Z,0.00
2022-09-28T00:22:50.119Z,0.00
2022-09-28T00:25:18.022Z,0.10
2022-09-28T00:30:36.354Z,0.03
2022-09-28T00:42:17.639Z,0.00
2022-09-28T00:50:58.696Z,0.10
2022-09-28T00:53:31.384Z,0.10
2022-09-28T00:56:05.470Z,0.00
2022-09-28T00:58:36.863Z,0.00
2022-09-28T01:03:48.644Z,0.00
2022-09-28T01:06:22.850Z,0.10
2022-09-28T01:09:08.600Z,0.00
2022-09-28T01:11:39.980Z,0.00
2022-09-28T01:14:17.806Z,0.08
2022-09-28T01:16:54.912Z,0.00
2022-09-28T01:20:19.394Z,0.03
2022-09-28T01:23:33.006Z,0.08
2022-09-28T01:26:26.183Z,0.00
2022-09-28T01:48:08.547Z,0.00
2022-09-28T01:50:41.889Z,0.00
2022-09-28T01:53:14.961Z,0.10
2022-09-28T01:55:49.041Z,0.10
2022-09-28T01:58:24.154Z,0.10
2022-09-28T02:00:57.539Z,0.10
2022-09-28T02:03:33.129Z,0.10
2022-09-28T02:06:10.007Z,0.00
2022-09-28T02:08:44.941Z,0.10
2022-09-28T05:07:49.257Z,0.10
2022-09-28T05:10:20.114Z,0.10
2022-09-28T05:12:50.627Z,0.10
2022-09-28T05:15:19.449Z,0.10
2022-09-28T05:17:51.945Z,0.00
2022-09-28T05:20:42.819Z,0.10
2022-09-28T05:23:39.945Z,0.03
2022-09-28T05:26:18.902Z,0.10
2022-09-28T05:32:02.092Z,0.10
2022-09-28T06:13:50.147Z,0.00
2022-09-28T08:55:56.660Z,0.08
2022-09-28T09:04:43.627Z,0.00
2022-09-28T09:07:52.314Z,0.00
2022-09-28T09:10:39.619Z,0.00
2022-09-28T09:13:33.553Z,0.00
2022-09-28T09:16:12.546Z,0.00
2022-09-28T09:19:17.842Z,0.00
2022-09-28T09:22:15.294Z,0.00
2022-09-28T09:24:50.583Z,0.10
2022-09-28T09:27:39.175Z,0.00
2022-09-28T09:30:11.975Z,0.00
2022-09-28T09:32:57.559Z,0.00
2022-09-28T09:35:46.011Z,0.00
2022-09-28T09:38:47.447Z,0.00
2022-09-28T09:41:47.133Z,0.00
2022-09-28T09:45:04.769Z,0.00
2022-09-28T09:48:04.317Z,0.00
2022-09-28T09:50:39.385Z,0.00
2022-09-28T09:53:17.861Z,0.00
2022-09-28T09:55:48.021Z,0.00
2022-09-28T09:58:39.590Z,0.00
2022-09-28T10:01:21.022Z,0.00
2022-09-28T10:04:22.135Z,0.00
2022-09-28T10:06:53.975Z,0.00
2022-09-28T10:09:25.822Z,0.10
2022-09-28T10:11:54.693Z,0.00
2022-09-28T10:14:24.472Z,0.00
2022-09-28T10:17:02.625Z,0.00
2022-09-28T10:19:50.693Z,0.00
2022-09-28T10:22:36.953Z,2.42
2022-09-28T10:25:13.616Z,1.92
2022-09-28T10:27:45.997Z,4.65
2022-09-28T10:30:18.850Z,2.42
2022-09-28T10:32:48.755Z,2.80
2022-09-28T10:35:28.263Z,3.42
2022-09-28T10:38:04.635Z,1.20
2022-09-28T10:40:55.379Z,4.40
2022-09-28T10:43:34.626Z,1.58
2022-09-28T10:46:10.194Z,2.83
2022-09-28T10:48:53.807Z,1.42
2022-09-28T10:51:45.131Z,3.42
2022-09-28T10:54:19.739Z,5.50
2022-09-28T10:56:52.047Z,1.73
2022-09-28T10:59:46.827Z,5.35
2022-09-28T11:02:37.515Z,3.60
2022-09-28T11:05:22.052Z,1.90
2022-09-28T11:15:07.370Z,2.78
2022-09-28T11:17:38.763Z,5.28
2022-09-28T11:20:30.630Z,5.10
2022-09-28T11:23:18.930Z,1.17
2022-09-28T11:25:58.346Z,1.80
2022-09-28T11:28:32.680Z,1.30
2022-09-28T11:31:03.961Z,4.72
2022-09-28T11:33:37.639Z,1.30
2022-09-28T11:36:46.656Z,5.30
2022-09-28T11:39:27.627Z,5.47
2022-09-28T11:42:16.135Z,2.15
2022-09-28T11:44:47.867Z,2.08
2022-09-28T11:47:33.952Z,1.10
2022-09-28T11:50:07.607Z,1.35
2022-09-28T11:52:44.602Z,1.45
2022-09-28T11:55:23.546Z,2.35
2022-09-28T11:57:58.045Z,2.05
2022-09-28T12:00:26.202Z,1.02
2022-09-28T12:03:06.990Z,3.50
2022-09-28T12:05:38.446Z,1.63
2022-09-28T12:08:14.583Z,2.65
2022-09-28T12:11:07.491Z,2.80
2022-09-28T12:13:59.603Z,4.32
2022-09-28T12:17:00.926Z,1.45
2022-09-28T12:19:26.397Z,2.97
2022-09-28T12:21:59.283Z,4.82
2022-09-28T12:24:32.087Z,0.90
2022-09-28T12:27:06.224Z,4.32
2022-09-28T12:29:47.515Z,2.80
2022-09-28T12:32:25.117Z,0.93
2022-09-28T12:34:52.894Z,0.90
2022-09-28T12:37:34.070Z,1.13
2022-09-28T12:40:22.346Z,1.13
2022-09-28T12:43:05.307Z,1.65
2022-09-28T12:46:10.800Z,2.30
2022-09-28T12:50:13.720Z,0.80
2022-09-28T12:52:16.710Z,2.53
2022-09-28T12:55:01.236Z,3.47
2022-09-28T12:57:41.911Z,2.33
2022-09-28T13:05:56.834Z,3.10
2022-09-28T13:08:36.451Z,2.10
2022-09-28T13:11:15.727Z,0.60
2022-09-28T13:13:53.004Z,1.60
2022-09-28T13:16:31.088Z,1.17
2022-09-28T13:19:08.585Z,3.58
2022-09-28T13:24:45.216Z,2.35
2022-09-28T13:27:19.465Z,1.02
2022-09-28T13:33:52.554Z,1.55
2022-09-28T13:36:43.458Z,1.52
2022-09-28T13:39:36.451Z,1.75
2022-09-28T13:44:54.251Z,1.10
2022-09-28T13:47:35.847Z,3.08
2022-09-28T13:50:22.180Z,1.10
2022-09-28T13:52:57.960Z,2.90
2022-09-28T13:55:34.001Z,3.50
2022-09-28T13:58:05.475Z,2.17
2022-09-28T14:00:39.688Z,1.50
2022-09-28T14:03:24.059Z,1.88
2022-09-28T14:06:22.969Z,0.65
2022-09-28T14:09:25.881Z,2.30
2022-09-28T14:11:59.793Z,1.75
2022-09-28T14:14:51.330Z,7.30
2022-09-28T14:17:55.541Z,2.30
2022-09-28T14:20:27.194Z,0.88
2022-09-28T14:23:29.760Z,1.17
2022-09-28T14:26:13.594Z,1.38
2022-09-28T14:28:49.939Z,1.58
2022-09-28T14:31:26.567Z,1.45
2022-09-28T14:33:57.852Z,2.30
2022-09-28T14:36:42.348Z,1.23
2022-09-28T14:39:45.940Z,1.75
2022-09-28T14:42:16.663Z,2.22
2022-09-28T14:45:18.012Z,5.55
2022-09-28T14:48:04.562Z,1.77
2022-09-28T14:50:32.425Z,2.35
2022-09-28T14:53:06.116Z,3.15
2022-09-28T14:55:43.931Z,2.90
2022-09-28T14:58:19.637Z,1.05
2022-09-28T15:00:49.135Z,2.13
2022-09-28T15:03:18.049Z,1.75
2022-09-28T15:05:48.244Z,0.85
2022-09-28T15:08:18.042Z,2.88
2022-09-28T15:10:49.052Z,1.58
2022-09-28T15:13:20.781Z,1.52
2022-09-28T15:15:52.429Z,2.72
2022-09-28T15:18:48.989Z,4.03
2022-09-28T15:21:16.908Z,1.15
2022-09-28T15:23:46.933Z,1.65
2022-09-28T15:26:27.413Z,4.40
2022-09-28T15:28:55.928Z,1.58
2022-09-28T15:31:26.309Z,8.15
2022-09-28T15:34:12.145Z,1.85
2022-09-28T15:36:41.742Z,3.72
2022-09-28T15:39:15.131Z,3.00
2022-09-28T15:41:46.963Z,1.15
2022-09-28T15:44:36.619Z,2.33
2022-09-28T15:47:13.894Z,1.90
2022-09-28T15:49:47.395Z,4.43
2022-09-28T15:52:27.761Z,1.55
2022-09-28T15:54:56.375Z,3.70
2022-09-28T15:57:35.893Z,2.55
2022-09-28T16:00:07.011Z,2.65
2022-09-28T16:02:39.852Z,2.88
2022-09-28T16:05:35.786Z,2.35
2022-09-28T16:08:06.342Z,1.02
2022-09-28T16:10:35.925Z,0.93
2022-09-28T16:13:17.121Z,1.07
2022-09-28T16:15:45.388Z,2.28
2022-09-28T16:18:20.693Z,1.33
2022-09-28T16:20:51.062Z,3.63
2022-09-28T16:23:22.851Z,3.85
2022-09-28T16:25:53.612Z,6.05
2022-09-28T16:28:51.676Z,3.75
2022-09-28T16:31:29.269Z,3.15
2022-09-28T16:33:59.583Z,1.90
2022-09-28T16:36:29.831Z,6.60
2022-09-28T16:38:57.712Z,3.83
2022-09-28T16:41:29.014Z,4.38
2022-09-28T16:44:01.331Z,9.68
2022-09-28T16:53:07.915Z,4.68
2022-09-28T16:55:40.551Z,4.47
2022-09-28T16:58:09.337Z,3.30
2022-09-28T17:00:38.556Z,3.30
2022-09-28T17:03:14.466Z,1.33
2022-09-28T17:05:42.854Z,4.45
2022-09-28T17:08:15.693Z,4.10
2022-09-28T17:11:09.862Z,6.45
2022-09-28T17:13:36.307Z,5.68
2022-09-28T17:16:08.444Z,8.65
2022-09-28T17:18:37.830Z,13.20
2022-09-28T17:21:07.402Z,14.43
2022-09-28T17:23:35.274Z,25.27
2022-09-28T17:26:03.839Z,39.38
2022-09-28T17:28:34.391Z,57.40
2022-09-28T17:33:31.519Z,81.55
2022-09-28T17:36:01.412Z,39.25
2022-09-28T17:38:29.426Z,47.53
2022-09-28T17:40:57.477Z,33.47
2022-09-28T17:43:25.300Z,35.35
2022-09-28T17:45:53.206Z,20.05
2022-09-28T17:48:22.920Z,31.30
2022-09-28T17:50:52.248Z,23.60
2022-09-28T17:53:20.049Z,11.93
2022-09-28T17:55:47.804Z,8.98
2022-09-28T17:58:17.814Z,11.93
2022-09-28T18:00:47.228Z,7.78
2022-09-28T18:03:16.852Z,9.20
2022-09-28T18:05:45.456Z,9.37
2022-09-28T18:08:18.455Z,15.05
2022-09-28T18:10:46.930Z,17.27
2022-09-28T18:13:14.786Z,11.15
2022-09-28T18:15:43.130Z,9.75
2022-09-28T18:18:12.869Z,9.68
2022-09-28T18:20:42.115Z,6.57
2022-09-28T18:23:10.009Z,3.88
2022-09-28T18:25:43.042Z,16.05
2022-09-28T18:28:29.537Z,11.90
2022-09-28T18:30:57.668Z,20.05
2022-09-28T18:33:25.591Z,21.33
2022-09-28T18:35:54.726Z,15.80
2022-09-28T18:38:22.619Z,12.48
2022-09-28T18:40:53.419Z,12.18
2022-09-28T18:43:21.592Z,10.35
2022-09-28T18:45:49.722Z,7.65
2022-09-28T18:48:17.580Z,10.23
2022-09-28T18:50:45.621Z,8.13
2022-09-28T18:53:13.450Z,8.73
2022-09-28T18:55:42.171Z,7.00
2022-09-28T18:58:12.931Z,5.63
2022-09-28T19:00:42.194Z,6.65
2022-09-28T19:03:14.344Z,8.13
2022-09-28T19:05:43.113Z,8.13
2022-09-28T19:08:11.168Z,7.03
2022-09-28T19:10:38.988Z,7.55
2022-09-28T19:13:06.835Z,6.85
2022-09-28T19:15:36.182Z,5.55
2022-09-28T19:18:04.285Z,6.07
2022-09-28T19:20:33.770Z,7.72
2022-09-28T19:23:02.092Z,14.48
2022-09-28T19:25:30.148Z,11.18
2022-09-28T19:27:57.937Z,7.45
2022-09-28T19:30:25.840Z,6.53
2022-09-28T19:32:55.100Z,6.00
2022-09-28T19:35:22.965Z,7.70
2022-09-28T19:37:51.462Z,4.10
2022-09-28T19:40:19.364Z,14.18
2022-09-28T19:42:47.243Z,10.13
2022-09-28T19:45:15.126Z,7.88
2022-09-28T19:47:43.013Z,9.07
2022-09-28T19:50:12.363Z,4.43
2022-09-28T19:52:40.185Z,5.55
2022-09-28T19:55:09.010Z,5.97
2022-09-28T19:57:36.854Z,11.00
2022-09-28T20:00:05.274Z,7.93
2022-09-28T20:02:34.357Z,5.45
2022-09-28T20:05:02.315Z,5.35
2022-09-28T20:07:33.382Z,4.82
2022-09-28T20:10:01.421Z,7.28
2022-09-28T20:12:29.211Z,4.95
2022-09-28T20:14:57.055Z,6.15
2022-09-28T20:17:26.104Z,4.50
2022-09-28T20:19:53.916Z,4.68
2022-09-28T20:22:21.809Z,7.85
2022-09-28T20:24:51.007Z,6.60
2022-09-28T20:27:19.734Z,9.65
2022-09-28T20:29:49.867Z,8.52
2022-09-28T20:32:17.683Z,6.95
2022-09-28T20:34:45.535Z,6.03
2022-09-28T20:37:14.042Z,5.45
2022-09-28T20:39:44.945Z,7.25
2022-09-28T20:42:15.533Z,8.75
2022-09-28T20:44:43.904Z,11.13
2022-09-28T20:47:12.072Z,9.20
2022-09-28T20:49:39.945Z,5.03
2022-09-28T20:52:07.810Z,5.53
2022-09-28T20:54:35.647Z,5.35
2022-09-28T20:57:17.199Z,4.75
2022-09-28T20:59:50.861Z,4.85
2022-09-28T21:02:21.795Z,9.07
2022-09-28T21:04:49.684Z,6.65
2022-09-28T21:07:17.549Z,5.32
2022-09-28T21:09:45.595Z,5.10
2022-09-28T21:12:15.357Z,7.07
2022-09-28T21:14:43.139Z,9.00
2022-09-28T21:17:12.371Z,10.75
2022-09-28T21:19:40.275Z,6.53
2022-09-28T21:22:08.266Z,9.70
2022-09-28T21:24:36.940Z,7.78
2022-09-28T21:27:05.005Z,7.47
2022-09-28T21:29:33.429Z,7.47
2022-09-28T21:32:01.985Z,6.93
2022-09-28T21:34:31.190Z,5.43
2022-09-28T21:36:58.987Z,8.02
2022-09-28T21:39:27.763Z,8.77
2022-09-28T21:41:55.638Z,7.43
2022-09-28T21:44:23.444Z,6.20
2022-09-28T21:46:51.215Z,6.20
2022-09-28T21:49:19.559Z,5.85
2022-09-28T21:51:48.767Z,8.75
2022-09-28T21:54:16.654Z,6.40
2022-09-28T21:56:44.671Z,6.72
2022-09-28T21:59:12.525Z,6.03
2022-09-28T22:01:42.672Z,9.85
2022-09-28T22:04:11.716Z,7.50
2022-09-28T22:06:39.779Z,11.18
2022-09-28T22:09:09.209Z,7.55
2022-09-28T22:11:37.973Z,7.18
2022-09-28T22:14:05.783Z,5.90
2022-09-28T22:16:33.641Z,6.50
2022-09-28T22:19:01.580Z,6.82
2022-09-28T22:21:31.860Z,7.30
2022-09-28T22:24:01.874Z,8.77
2022-09-28T22:26:33.603Z,9.25
2022-09-28T22:29:03.445Z,8.32
2022-09-28T22:31:32.941Z,10.93
2022-09-28T22:34:01.264Z,7.22
2022-09-28T22:36:29.850Z,8.75
2022-09-28T22:38:59.302Z,9.38
2022-09-28T22:41:28.324Z,11.48
2022-09-28T22:43:57.703Z,8.13
2022-09-28T22:46:27.892Z,7.85
2022-09-28T22:48:57.499Z,10.18
2022-09-28T22:51:27.077Z,10.20
2022-09-28T22:53:56.516Z,10.20
2022-09-28T22:56:24.614Z,5.40
2022-09-28T22:58:52.464Z,9.85
2022-09-28T23:01:23.622Z,8.60
2022-09-28T23:03:53.342Z,5.72
2022-09-28T23:06:23.831Z,9.67
2022-09-28T23:11:20.722Z,8.52
2022-09-28T23:13:52.523Z,8.52
2022-09-28T23:16:23.546Z,7.03
2022-09-28T23:18:51.580Z,13.77
2022-09-28T23:21:21.112Z,7.82
2022-09-28T23:23:53.490Z,10.23
2022-09-28T23:26:22.920Z,8.88
2022-09-28T23:28:51.092Z,10.75
2022-09-28T23:31:23.109Z,6.75
2022-09-28T23:33:52.208Z,10.02
2022-09-28T23:36:20.180Z,6.78
2022-09-28T23:38:48.025Z,6.70
2022-09-28T23:41:15.861Z,7.50
2022-09-28T23:43:43.705Z,10.25
2022-09-28T23:46:12.004Z,11.55
2022-09-28T23:48:41.258Z,9.93
2022-09-28T23:51:09.154Z,10.23
2022-09-28T23:53:36.947Z,7.70
2022-09-28T23:56:04.826Z,8.55
2022-09-28T23:58:32.791Z,9.80
